createdAt,value
2023-02-08T00:01:25.553Z,61.86
2023-02-08T00:03:53.643Z,66.53
2023-02-08T00:06:21.617Z,68.97
2023-02-08T00:08:49.519Z,62.83
2023-02-08T00:11:17.854Z,60.09
2023-02-08T00:13:45.716Z,55.94
2023-02-08T00:16:15.641Z,54.85
2023-02-08T00:18:43.615Z,56.42
2023-02-08T00:21:16.571Z,61.34
2023-02-08T00:23:45.024Z,65.19
2023-02-08T00:26:13.235Z,66.37
2023-02-08T00:28:41.127Z,63.45
2023-02-08T00:31:09.114Z,60.53
2023-02-08T00:33:37.445Z,55.43
2023-02-08T00:36:09.353Z,55.39
2023-02-08T00:38:37.239Z,58.70
2023-02-08T00:41:06.015Z,61.25
2023-02-08T00:43:34.674Z,66.21
2023-02-08T00:46:02.926Z,66.65
2023-02-08T00:48:31.821Z,63.34
2023-02-08T00:51:07.381Z,57.39
2023-02-08T00:53:39.297Z,54.80
2023-02-08T00:56:09.545Z,57.14
2023-02-08T00:58:38.085Z,59.75
2023-02-08T01:01:08.013Z,61.79
2023-02-08T01:03:39.084Z,64.98
2023-02-08T01:06:12.913Z,66.17
2023-02-08T01:08:40.800Z,66.36
2023-02-08T01:11:14.533Z,65.64
2023-02-08T01:13:42.754Z,66.92
2023-02-08T01:16:15.339Z,62.21
2023-02-08T01:18:48.198Z,55.90
2023-02-08T01:21:23.438Z,54.20
2023-02-08T01:23:52.228Z,56.90
2023-02-08T01:26:21.848Z,59.30
2023-02-08T01:28:51.461Z,62.37
2023-02-08T01:31:29.261Z,66.53
2023-02-08T01:33:59.540Z,68.18
2023-02-08T01:36:29.939Z,61.81
2023-02-08T01:38:58.281Z,55.53
2023-02-08T01:41:37.640Z,55.13
2023-02-08T01:45:03.277Z,58.33
2023-02-08T01:47:31.802Z,62.92
2023-02-08T01:50:00.358Z,66.53
2023-02-08T01:52:28.994Z,65.62
2023-02-08T01:55:13.307Z,61.04
2023-02-08T01:57:43.918Z,55.62
2023-02-08T02:00:21.375Z,55.67
2023-02-08T02:02:53.649Z,58.16
2023-02-08T02:05:28.249Z,59.78
2023-02-08T02:07:58.676Z,61.77
2023-02-08T02:10:32.550Z,66.81
2023-02-08T02:13:11.629Z,71.31
2023-02-08T02:15:40.079Z,66.84
2023-02-08T02:18:09.363Z,59.49
2023-02-08T02:21:08.529Z,53.41
2023-02-08T02:24:06.449Z,54.32
2023-02-08T02:26:46.404Z,57.70
2023-02-08T02:29:51.382Z,60.79
2023-02-08T02:32:41.213Z,65.17
2023-02-08T02:35:45.184Z,68.16
2023-02-08T02:38:44.841Z,60.12
2023-02-08T02:42:11.641Z,55.49
2023-02-08T02:45:10.778Z,56.15
2023-02-08T02:47:56.038Z,60.58
2023-02-08T02:50:33.489Z,64.94
2023-02-08T02:53:19.826Z,67.20
2023-02-08T02:56:01.141Z,61.71
2023-02-08T02:58:31.340Z,55.17
2023-02-08T03:01:00.669Z,53.85
2023-02-08T03:03:34.408Z,56.69
2023-02-08T03:06:10.672Z,58.95
2023-02-08T03:09:39.545Z,62.11
2023-02-08T03:12:31.495Z,66.05
2023-02-08T03:15:17.614Z,65.88
2023-02-08T03:18:23.164Z,65.62
2023-02-08T03:21:08.622Z,66.11
2023-02-08T03:24:13.526Z,67.25
2023-02-08T03:27:01.821Z,66.20
2023-02-08T03:29:49.956Z,66.57
2023-02-08T03:32:25.505Z,67.81
2023-02-08T03:35:10.525Z,65.26
2023-02-08T03:37:48.322Z,59.15
2023-02-08T03:40:25.407Z,55.25
2023-02-08T03:42:58.797Z,56.90
2023-02-08T03:45:50.627Z,59.30
2023-02-08T03:48:23.051Z,63.51
2023-02-08T03:50:55.339Z,67.11
2023-02-08T03:53:26.017Z,66.40
2023-02-08T03:56:02.024Z,63.32
2023-02-08T03:58:41.970Z,60.58
2023-02-08T04:01:20.795Z,60.50
2023-02-08T04:03:54.045Z,56.16
2023-02-08T04:06:23.337Z,55.86
2023-02-08T04:08:51.563Z,59.97
2023-02-08T04:11:19.585Z,60.91
2023-02-08T04:13:47.764Z,64.68
2023-02-08T04:16:15.667Z,65.77
2023-02-08T04:18:43.759Z,64.37
2023-02-08T04:21:11.794Z,63.90
2023-02-08T04:23:39.632Z,63.61
2023-02-08T04:26:08.994Z,61.00
2023-02-08T04:28:36.881Z,59.08
2023-02-08T04:31:05.192Z,57.60
2023-02-08T04:33:33.239Z,59.63
2023-02-08T04:36:01.132Z,63.13
2023-02-08T04:38:29.136Z,66.25
2023-02-08T04:40:57.075Z,65.61
2023-02-08T04:43:25.240Z,63.65
2023-02-08T04:45:53.337Z,61.39
2023-02-08T04:48:21.494Z,59.90
2023-02-08T04:50:49.332Z,58.05
2023-02-08T04:53:17.202Z,58.40
2023-02-08T04:55:44.991Z,60.13
2023-02-08T04:58:12.852Z,63.64
2023-02-08T05:00:40.970Z,66.55
2023-02-08T05:03:10.214Z,64.89
2023-02-08T05:05:38.106Z,62.87
2023-02-08T05:08:05.972Z,60.83
2023-02-08T05:10:34.033Z,58.43
2023-02-08T05:13:01.897Z,57.26
2023-02-08T05:15:29.737Z,59.45
2023-02-08T05:17:57.640Z,62.93
2023-02-08T05:20:25.522Z,66.29
2023-02-08T05:22:53.332Z,65.60
2023-02-08T05:25:21.221Z,63.94
2023-02-08T05:27:49.123Z,62.69
2023-02-08T05:30:17.465Z,62.11
2023-02-08T05:32:45.287Z,60.90
2023-02-08T05:35:13.118Z,57.69
2023-02-08T05:37:40.950Z,57.19
2023-02-08T05:40:10.533Z,59.00
2023-02-08T05:42:38.690Z,61.98
2023-02-08T05:45:06.943Z,64.69
2023-02-08T05:47:34.764Z,67.25
2023-02-08T05:50:03.355Z,66.63
2023-02-08T05:52:31.718Z,65.18
2023-02-08T05:54:59.633Z,62.87
2023-02-08T05:57:28.675Z,62.21
2023-02-08T05:59:58.196Z,61.29
2023-02-08T06:02:26.057Z,60.26
2023-02-08T06:04:54.035Z,57.81
2023-02-08T06:07:21.835Z,56.90
2023-02-08T06:09:49.782Z,58.47
2023-02-08T06:12:17.638Z,60.47
2023-02-08T06:14:45.444Z,62.91
2023-02-08T06:17:13.315Z,67.79
2023-02-08T06:19:41.188Z,67.53
2023-02-08T06:22:09.093Z,64.74
2023-02-08T06:24:36.953Z,62.16
2023-02-08T06:27:04.829Z,61.29
2023-02-08T06:29:32.646Z,60.48
2023-02-08T06:32:00.738Z,60.08
2023-02-08T06:34:28.931Z,57.48
2023-02-08T06:36:57.554Z,55.85
2023-02-08T06:39:25.786Z,57.70
2023-02-08T06:41:53.795Z,61.66
2023-02-08T06:44:21.796Z,64.81
2023-02-08T06:46:49.937Z,64.92
2023-02-08T06:49:17.716Z,65.50
2023-02-08T06:51:45.758Z,64.02
2023-02-08T06:54:15.690Z,61.56
2023-02-08T06:56:43.819Z,60.80
2023-02-08T06:59:11.801Z,59.49
2023-02-08T07:01:39.795Z,56.73
2023-02-08T07:04:07.592Z,57.74
2023-02-08T07:06:35.551Z,60.72
2023-02-08T07:09:04.421Z,64.84
2023-02-08T07:11:32.402Z,65.95
2023-02-08T07:14:00.506Z,64.58
2023-02-08T07:16:28.594Z,62.22
2023-02-08T07:18:56.522Z,60.50
2023-02-08T07:21:24.474Z,59.61
2023-02-08T07:23:52.537Z,57.41
2023-02-08T07:26:20.397Z,57.58
2023-02-08T07:28:48.345Z,60.90
2023-02-08T07:31:17.749Z,63.32
2023-02-08T07:33:45.671Z,66.48
2023-02-08T07:36:13.627Z,65.41
2023-02-08T07:38:41.560Z,63.62
2023-02-08T07:41:14.172Z,61.54
2023-02-08T07:43:43.146Z,59.12
2023-02-08T07:46:15.060Z,56.05
2023-02-08T07:48:43.165Z,56.94
2023-02-08T07:51:15.144Z,58.97
2023-02-08T07:53:43.444Z,61.22
2023-02-08T07:56:11.926Z,61.69
2023-02-08T07:58:40.029Z,65.12
2023-02-08T08:01:23.602Z,65.86
2023-02-08T08:03:52.512Z,61.64
2023-02-08T08:06:22.924Z,59.81
2023-02-08T08:08:55.082Z,56.41
2023-02-08T08:11:23.162Z,56.62
2023-02-08T08:13:51.480Z,57.89
2023-02-08T08:16:19.768Z,60.56
2023-02-08T08:18:48.648Z,62.94
2023-02-08T08:21:16.951Z,64.16
2023-02-08T08:23:44.961Z,62.27
2023-02-08T08:26:17.337Z,61.66
2023-02-08T08:28:47.081Z,61.38
2023-02-08T08:31:21.686Z,61.12
2023-02-08T08:33:50.689Z,58.19
2023-02-08T08:36:18.669Z,55.85
2023-02-08T08:38:46.601Z,58.33
2023-02-08T08:41:18.157Z,59.68
2023-02-08T08:43:46.851Z,63.04
2023-02-08T08:46:16.747Z,64.31
2023-02-08T08:48:46.233Z,61.56
2023-02-08T08:51:15.090Z,59.31
2023-02-08T08:53:43.366Z,58.12
2023-02-08T08:56:11.364Z,59.85
2023-02-08T08:58:39.807Z,61.49
2023-02-08T09:01:07.723Z,63.16
2023-02-08T09:03:35.643Z,64.69
2023-02-08T09:06:03.678Z,62.41
2023-02-08T09:08:31.629Z,60.97
2023-02-08T09:11:10.574Z,57.37
2023-02-08T09:13:39.597Z,58.28
2023-02-08T09:16:09.686Z,60.08
2023-02-08T09:18:37.856Z,61.99
2023-02-08T09:21:12.170Z,65.13
2023-02-08T09:23:40.323Z,65.74
2023-02-08T09:26:12.890Z,63.87
2023-02-08T09:28:41.510Z,61.58
2023-02-08T09:31:22.231Z,57.43
2023-02-08T09:33:52.310Z,55.99
2023-02-08T09:36:22.847Z,57.84
2023-02-08T09:39:00.958Z,59.77
2023-02-08T09:41:47.508Z,61.78
2023-02-08T09:44:53.158Z,63.62
2023-02-08T09:47:35.921Z,64.70
2023-02-08T09:50:35.349Z,61.36
2023-02-08T09:53:24.972Z,58.93
2023-02-08T09:56:02.105Z,56.25
2023-02-08T09:58:44.843Z,57.30
2023-02-08T10:01:27.745Z,59.54
2023-02-08T10:04:00.732Z,60.41
2023-02-08T10:06:30.673Z,61.03
2023-02-08T10:09:04.483Z,63.05
2023-02-08T10:11:58.240Z,62.13
2023-02-08T10:15:06.701Z,60.43
2023-02-08T10:18:11.038Z,55.81
2023-02-08T10:20:57.847Z,56.19
2023-02-08T10:24:05.747Z,57.41
2023-02-08T10:26:55.623Z,58.97
2023-02-08T10:30:18.580Z,60.38
2023-02-08T10:32:59.692Z,61.65
2023-02-08T10:35:37.463Z,63.31
2023-02-08T10:38:44.185Z,63.83
2023-02-08T10:41:24.853Z,61.45
2023-02-08T10:44:14.056Z,57.77
2023-02-08T10:46:54.951Z,54.96
2023-02-08T10:49:57.598Z,55.75
2023-02-08T10:52:25.710Z,57.82
2023-02-08T10:54:57.763Z,58.47
2023-02-08T10:57:34.725Z,59.09
2023-02-08T11:00:19.377Z,60.58
2023-02-08T11:02:49.397Z,61.47
2023-02-08T11:05:23.435Z,62.31
2023-02-08T11:08:19.624Z,65.11
2023-02-08T11:11:04.402Z,63.02
2023-02-08T11:13:53.297Z,57.16
2023-02-08T11:16:27.055Z,56.02
2023-02-08T11:18:59.075Z,57.83
2023-02-08T11:21:36.936Z,58.64
2023-02-08T11:24:50.781Z,60.57
2023-02-08T11:27:33.604Z,61.85
2023-02-08T11:30:13.652Z,61.91
2023-02-08T11:32:45.088Z,63.32
2023-02-08T11:35:21.982Z,62.46
2023-02-08T11:37:53.774Z,59.70
2023-02-08T11:40:45.088Z,56.99
2023-02-08T11:43:27.704Z,57.81
2023-02-08T11:45:59.465Z,59.35
2023-02-08T11:48:39.329Z,60.06
2023-02-08T11:51:08.533Z,61.52
2023-02-08T11:53:41.752Z,62.08
2023-02-08T11:56:29.360Z,62.39
2023-02-08T11:59:17.649Z,63.24
2023-02-08T12:01:45.924Z,62.37
2023-02-08T12:04:16.969Z,59.51
2023-02-08T12:07:20.950Z,57.44
2023-02-08T12:10:29.180Z,57.62
2023-02-08T12:13:54.128Z,59.72
2023-02-08T12:16:39.991Z,60.75
2023-02-08T12:19:37.041Z,61.63
2023-02-08T12:22:17.229Z,62.32
2023-02-08T12:25:00.166Z,63.90
2023-02-08T12:27:48.764Z,63.41
2023-02-08T12:30:35.754Z,60.06
2023-02-08T12:33:29.655Z,56.57
2023-02-08T12:36:21.495Z,57.44
2023-02-08T12:39:37.623Z,57.85
2023-02-08T12:42:17.296Z,60.26
2023-02-08T12:45:06.431Z,60.71
2023-02-08T12:48:21.310Z,61.64
2023-02-08T12:51:27.868Z,61.80
2023-02-08T12:54:03.440Z,61.89
2023-02-08T12:56:39.924Z,61.45
2023-02-08T12:59:28.681Z,61.94
2023-02-08T13:02:05.071Z,63.92
2023-02-08T13:04:41.249Z,64.90
2023-02-08T13:07:20.309Z,61.75
2023-02-08T13:10:02.761Z,56.45
2023-02-08T13:12:38.809Z,55.39
2023-02-08T13:15:44.673Z,56.31
2023-02-08T13:18:22.877Z,58.01
2023-02-08T13:21:01.886Z,58.25
2023-02-08T13:23:50.552Z,59.31
2023-02-08T13:26:28.104Z,59.37
2023-02-08T13:29:01.379Z,59.86
2023-02-08T13:31:39.196Z,60.30
2023-02-08T13:34:21.633Z,61.01
2023-02-08T13:36:59.481Z,60.88
2023-02-08T13:39:43.044Z,60.76
2023-02-08T13:42:48.573Z,61.08
2023-02-08T13:45:52.492Z,61.00
2023-02-08T13:48:20.853Z,61.24
2023-02-08T13:50:57.324Z,61.31
2023-02-08T13:53:40.836Z,61.58
2023-02-08T13:56:13.612Z,61.92
2023-02-08T13:58:47.629Z,61.69
2023-02-08T14:01:27.763Z,61.71
2023-02-08T14:04:07.749Z,61.73
2023-02-08T14:06:42.133Z,61.82
2023-02-08T14:09:33.181Z,61.92
2023-02-08T14:12:12.223Z,61.74
2023-02-08T14:14:40.242Z,61.64
2023-02-08T14:17:31.390Z,61.87
2023-02-08T14:20:06.405Z,62.19
2023-02-08T14:22:50.863Z,62.76
2023-02-08T14:25:24.864Z,64.42
2023-02-08T14:27:58.152Z,61.58
2023-02-08T14:30:32.731Z,58.90
2023-02-08T14:33:07.553Z,55.12
2023-02-08T14:35:56.288Z,55.49
2023-02-08T14:38:24.183Z,57.06
2023-02-08T14:40:55.722Z,58.01
2023-02-08T14:43:42.998Z,59.02
2023-02-08T14:46:42.301Z,59.41
2023-02-08T14:49:17.923Z,60.44
2023-02-08T14:51:58.377Z,60.74
2023-02-08T14:54:39.533Z,61.41
2023-02-08T14:57:25.802Z,61.77
2023-02-08T14:59:59.906Z,62.00
2023-02-08T15:02:32.909Z,62.33
2023-02-08T15:05:09.901Z,64.55
2023-02-08T15:07:51.087Z,66.59
2023-02-08T15:10:22.634Z,65.17
2023-02-08T15:12:56.249Z,63.88
2023-02-08T15:15:44.164Z,61.85
2023-02-08T15:18:24.676Z,55.61
2023-02-08T15:21:08.523Z,53.35
2023-02-08T15:23:36.633Z,54.72
2023-02-08T15:26:20.508Z,55.56
2023-02-08T15:28:48.387Z,57.48
2023-02-08T15:31:22.066Z,58.49
2023-02-08T15:33:53.400Z,59.40
2023-02-08T15:36:36.423Z,61.01
2023-02-08T15:39:19.256Z,61.85
2023-02-08T15:41:49.174Z,64.70
2023-02-08T15:44:25.179Z,67.59
2023-02-08T15:49:35.730Z,64.08
2023-02-08T15:52:05.820Z,60.67
2023-02-08T15:54:33.946Z,55.66
2023-02-08T15:57:09.293Z,53.69
2023-02-08T15:59:40.582Z,54.77
2023-02-08T16:02:34.946Z,56.00
2023-02-08T16:05:23.414Z,57.13
2023-02-08T16:07:52.021Z,59.44
2023-02-08T16:10:38.831Z,61.81
2023-02-08T16:13:27.513Z,64.61
2023-02-08T16:16:14.502Z,67.24
2023-02-08T16:18:47.282Z,65.31
2023-02-08T16:21:24.397Z,64.10
2023-02-08T16:24:05.762Z,61.92
2023-02-08T16:26:56.577Z,58.09
2023-02-08T16:29:39.620Z,54.52
2023-02-08T16:32:24.252Z,54.89
2023-02-08T16:34:52.427Z,56.27
2023-02-08T16:37:35.386Z,58.45
2023-02-08T16:40:50.054Z,60.25
2023-02-08T16:43:22.762Z,61.58
2023-02-08T16:46:16.684Z,62.58
2023-02-08T16:48:50.478Z,67.28
2023-02-08T16:51:29.864Z,68.60
2023-02-08T16:54:07.667Z,66.38
2023-02-08T16:56:36.828Z,64.20
2023-02-08T16:59:06.125Z,62.00
2023-02-08T17:01:35.745Z,58.81
2023-02-08T17:04:04.563Z,55.66
2023-02-08T17:06:35.969Z,55.74
2023-02-08T17:09:08.289Z,57.28
2023-02-08T17:11:36.221Z,59.23
2023-02-08T17:14:05.498Z,60.53
2023-02-08T17:16:35.500Z,61.72
2023-02-08T17:19:04.676Z,64.80
2023-02-08T17:21:33.179Z,66.74
2023-02-08T17:24:01.923Z,65.53
2023-02-08T17:26:38.842Z,64.38
2023-02-08T17:29:08.413Z,62.24
2023-02-08T17:31:36.893Z,61.70
2023-02-08T17:34:04.783Z,60.24
2023-02-08T17:36:36.658Z,57.07
2023-02-08T17:39:06.268Z,54.16
2023-02-08T17:41:35.541Z,54.70
2023-02-08T17:44:04.335Z,55.90
2023-02-08T17:46:32.702Z,56.57
2023-02-08T17:49:01.923Z,57.03
2023-02-08T17:51:30.727Z,58.01
2023-02-08T17:53:59.106Z,58.52
2023-02-08T17:56:28.759Z,59.36
2023-02-08T17:58:57.856Z,60.10
2023-02-08T18:01:27.727Z,63.95
2023-02-08T18:03:57.271Z,68.71
2023-02-08T18:06:25.191Z,67.49
2023-02-08T18:08:55.323Z,65.43
2023-02-08T18:11:24.324Z,64.48
2023-02-08T18:13:54.584Z,62.70
2023-02-08T18:16:26.790Z,58.64
2023-02-08T18:18:57.693Z,55.36
2023-02-08T18:21:26.059Z,55.57
2023-02-08T18:23:55.520Z,56.47
2023-02-08T18:26:25.213Z,57.25
2023-02-08T18:28:53.330Z,58.92
2023-02-08T18:31:22.088Z,60.61
2023-02-08T18:33:51.488Z,63.21
2023-02-08T18:36:21.959Z,66.70
2023-02-08T18:38:52.949Z,66.36
2023-02-08T18:41:28.243Z,64.56
2023-02-08T18:43:58.368Z,62.97
2023-02-08T18:46:29.623Z,61.94
2023-02-08T18:48:58.114Z,62.18
2023-02-08T18:51:27.722Z,61.60
2023-02-08T18:53:56.244Z,60.79
2023-02-08T18:56:27.398Z,58.52
2023-02-08T18:58:59.979Z,55.31
2023-02-08T19:01:27.984Z,55.76
2023-02-08T19:03:56.140Z,57.29
2023-02-08T19:06:28.720Z,58.62
2023-02-08T19:09:01.634Z,60.18
2023-02-08T19:11:34.300Z,62.97
2023-02-08T19:14:06.903Z,66.28
2023-02-08T19:16:37.475Z,66.96
2023-02-08T19:19:07.322Z,64.74
2023-02-08T19:21:35.569Z,62.29
2023-02-08T19:24:04.258Z,61.98
2023-02-08T19:26:39.742Z,61.44
2023-02-08T19:29:15.818Z,60.16
2023-02-08T19:31:45.960Z,58.30
2023-02-08T19:34:13.904Z,57.20
2023-02-08T19:36:55.162Z,58.49
2023-02-08T19:39:30.219Z,60.99
2023-02-08T19:41:59.088Z,64.44
2023-02-08T19:44:30.967Z,66.35
2023-02-08T19:50:04.011Z,64.04
2023-02-08T19:52:31.992Z,63.43
2023-02-08T19:55:00.815Z,63.68
2023-02-08T19:57:28.681Z,62.72
2023-02-08T19:59:56.656Z,61.43
2023-02-08T20:02:27.485Z,61.18
2023-02-08T20:04:55.744Z,61.11
2023-02-08T20:07:26.372Z,61.25
2023-02-08T20:09:56.934Z,60.99
2023-02-08T20:12:33.945Z,60.14
2023-02-08T20:15:23.579Z,57.84
2023-02-08T20:17:51.481Z,58.17
2023-02-08T20:20:25.133Z,59.20
2023-02-08T20:22:57.440Z,61.30
2023-02-08T20:25:25.493Z,64.18
2023-02-08T20:27:54.566Z,66.97
2023-02-08T20:30:25.249Z,65.70
2023-02-08T20:32:54.104Z,64.56
2023-02-08T20:35:22.734Z,63.33
2023-02-08T20:37:50.551Z,61.64
2023-02-08T20:40:18.845Z,61.38
2023-02-08T20:42:46.749Z,60.82
2023-02-08T20:45:15.412Z,57.97
2023-02-08T20:47:46.871Z,57.12
2023-02-08T20:50:19.763Z,58.60
2023-02-08T20:52:49.260Z,59.69
2023-02-08T20:55:17.428Z,61.74
2023-02-08T20:57:45.278Z,65.08
2023-02-08T21:00:14.229Z,66.95
2023-02-08T21:02:42.658Z,66.22
2023-02-08T21:05:10.868Z,64.22
2023-02-08T21:07:40.444Z,62.25
2023-02-08T21:10:08.767Z,61.56
2023-02-08T21:12:36.797Z,60.12
2023-02-08T21:15:05.296Z,58.46
2023-02-08T21:17:33.407Z,59.45
2023-02-08T21:20:01.284Z,61.24
2023-02-08T21:22:29.101Z,62.23
2023-02-08T21:24:57.000Z,64.42
2023-02-08T21:27:25.056Z,66.50
2023-02-08T21:29:52.973Z,64.62
2023-02-08T21:32:20.787Z,63.04
2023-02-08T21:34:49.980Z,61.54
2023-02-08T21:37:18.305Z,60.76
2023-02-08T21:39:47.366Z,60.05
2023-02-08T21:42:15.399Z,60.15
2023-02-08T21:44:43.245Z,59.94
2023-02-08T21:47:11.230Z,57.24
2023-02-08T21:49:57.547Z,56.74
2023-02-08T21:52:44.153Z,58.06
2023-02-08T21:55:11.989Z,62.65
2023-02-08T21:57:41.205Z,64.97
2023-02-08T22:00:10.994Z,64.13
2023-02-08T22:02:38.945Z,63.00
2023-02-08T22:05:25.952Z,61.50
2023-02-08T22:07:57.181Z,60.78
2023-02-08T22:10:31.833Z,60.07
2023-02-08T22:13:00.125Z,57.62
2023-02-08T22:15:30.639Z,57.19
2023-02-08T22:18:01.500Z,59.27
2023-02-08T22:20:30.870Z,61.31
2023-02-08T22:22:58.749Z,64.00
2023-02-08T22:25:26.759Z,65.78
2023-02-08T22:27:54.964Z,65.19
2023-02-08T22:30:25.415Z,63.76
2023-02-08T22:32:53.546Z,63.32
2023-02-08T22:35:21.469Z,61.82
2023-02-08T22:37:49.409Z,60.51
2023-02-08T22:40:17.568Z,59.96
2023-02-08T22:42:45.524Z,56.90
2023-02-08T22:45:13.518Z,56.06
2023-02-08T22:47:41.469Z,57.59
2023-02-08T22:50:10.659Z,59.85
2023-02-08T22:52:38.551Z,61.72
2023-02-08T22:55:07.372Z,64.10
2023-02-08T22:57:36.128Z,67.53
2023-02-08T23:00:09.378Z,66.72
2023-02-08T23:02:37.343Z,64.72
2023-02-08T23:05:05.675Z,64.08
2023-02-08T23:07:33.525Z,62.71
2023-02-08T23:10:02.717Z,60.94
2023-02-08T23:12:30.765Z,58.18
2023-02-08T23:14:58.675Z,56.14
2023-02-08T23:17:26.710Z,58.40
2023-02-08T23:19:54.549Z,59.93
2023-02-08T23:22:22.377Z,61.33
2023-02-08T23:24:50.247Z,63.86
2023-02-08T23:27:18.118Z,67.12
2023-02-08T23:29:45.976Z,66.55
2023-02-08T23:32:13.875Z,65.04
2023-02-08T23:34:41.730Z,63.26
2023-02-08T23:37:09.490Z,62.44
2023-02-08T23:39:37.422Z,62.24
2023-02-08T23:42:05.799Z,61.54
2023-02-08T23:44:33.637Z,60.71
2023-02-08T23:47:01.487Z,60.11
2023-02-08T23:49:29.431Z,57.93
2023-02-08T23:51:57.285Z,56.65
2023-02-08T23:54:25.049Z,58.07
2023-02-08T23:56:53.700Z,60.06
2023-02-08T23:59:21.568Z,63.03
